Time,TemperatureF,DewpointF,PressureIn,WindDirection,WindDirectionDegrees,WindSpeedMPH,WindSpeedGustMPH,Humidity,HourlyPrecipIn,Conditions,Clouds,dailyrainin,SoftwareType,DateUTC
2013-07-01 00:01:00,70.4,68.9,29.99,West,267,15.0,18.0,95,0.00,,,0.00,WeatherCatV1.14B232,2013-07-01 04:01:00,
2013-07-01 00:06:00,70.4,68.9,29.99,West,261,13.0,19.0,95,0.00,,,0.00,WeatherCatV1.14B232,2013-07-01 04:06:00,
2013-07-01 00:11:00,70.4,68.9,29.99,WSW,256,16.0,19.0,95,0.00,,,0.00,WeatherCatV1.14B232,2013-07-01 04:11:00,
2013-07-01 00:16:00,70.4,68.9,29.99,WSW,257,14.0,19.0,95,0.00,,,0.00,WeatherCatV1.14B232,2013-07-01 04:16:00,
2013-07-01 00:21:00,70.5,69.0,29.99,WSW,257,14.0,17.0,95,0.00,,,0.00,WeatherCatV1.14B232,2013-07-01 04:21:00,
2013-07-01 00:26:00,70.4,68.9,29.99,West,267,13.0,20.0,95,0.00,,,0.00,WeatherCatV1.14B232,2013-07-01 04:26:00,
2013-07-01 00:31:00,70.4,68.9,29.99,WSW,252,16.0,17.0,95,0.00,,,0.00,WeatherCatV1.14B232,2013-07-01 04:31:00,
2013-07-01 00:36:00,70.4,69.2,29.99,West,260,14.0,17.0,96,0.00,,,0.00,WeatherCatV1.14B232,2013-07-01 04:36:00,
2013-07-01 00:41:00,70.4,69.2,29.99,West,277,12.0,19.0,96,0.00,,,0.00,WeatherCatV1.14B232,2013-07-01 04:41:00,
2013-07-01 00:46:00,70.4,69.2,29.99,West,267,15.0,20.0,96,0.00,,,0.00,WeatherCatV1.14B232,2013-07-01 04:46:00,
2013-07-01 00:51:00,70.3,69.1,29.99,West,259,14.0,20.0,96,0.00,,,0.00,WeatherCatV1.14B232,2013-07-01 04:51:00,
2013-07-01 00:56:00,70.3,69.1,29.99,West,259,16.0,19.0,96,0.00,,,0.00,WeatherCatV1.14B232,2013-07-01 04:56:00,
2013-07-01 01:01:00,70.3,69.1,29.99,WSW,253,13.0,16.0,96,0.00,,,0.00,WeatherCatV1.14B232,2013-07-01 05:01:00,
2013-07-01 01:06:00,70.3,69.1,30.00,West,263,16.0,20.0,96,0.00,,,0.00,WeatherCatV1.14B232,2013-07-01 05:06:00,
2013-07-01 01:11:00,70.4,69.2,29.99,WSW,258,15.0,20.0,96,0.00,,,0.00,WeatherCatV1.14B232,2013-07-01 05:11:00,
2013-07-01 01:16:00,70.4,69.2,29.99,West,261,18.0,18.0,96,0.00,,,0.00,WeatherCatV1.14B232,2013-07-01 05:16:00,
2013-07-01 01:21:00,70.5,69.3,29.99,West,269,13.0,17.0,96,0.00,,,0.00,WeatherCatV1.14B232,2013-07-01 05:21:00,
2013-07-01 01:26:00,70.5,69.3,29.99,WSW,245,14.0,20.0,96,0.00,,,0.00,WeatherCatV1.14B232,2013-07-01 05:26:00,
2013-07-01 01:31:00,70.6,69.4,29.99,West,265,17.0,21.0,96,0.00,,,0.00,WeatherCatV1.14B232,2013-07-01 05:31:00,
2013-07-01 01:36:00,70.6,69.4,29.99,West,261,17.0,20.0,96,0.00,,,0.00,WeatherCatV1.14B232,2013-07-01 05:36:00,
2013-07-01 01:41:00,70.5,69.3,29.99,WSW,254,14.0,15.0,96,0.00,,,0.00,WeatherCatV1.14B232,2013-07-01 05:41:00,
2013-07-01 01:46:00,70.5,69.3,29.99,West,265,11.0,18.0,96,0.00,,,0.00,WeatherCatV1.14B232,2013-07-01 05:46:00,
2013-07-01 01:51:00,70.6,69.4,29.99,West,264,14.0,17.0,96,0.00,,,0.00,WeatherCatV1.14B232,2013-07-01 05:51:00,
2013-07-01 01:56:00,70.5,69.3,29.99,West,266,11.0,15.0,96,0.00,,,0.00,WeatherCatV1.14B232,2013-07-01 05:56:00,
2013-07-01 02:01:00,70.5,69.3,30.00,WSW,255,13.0,17.0,96,0.00,,,0.00,WeatherCatV1.14B232,2013-07-01 06:01:00,
2013-07-01 02:06:00,70.4,69.2,29.99,West,260,14.0,15.0,96,0.00,,,0.00,WeatherCatV1.14B232,2013-07-01 06:06:00,
2013-07-01 02:11:00,70.4,69.2,29.99,West,267,12.0,16.0,96,0.00,,,0.00,WeatherCatV1.14B232,2013-07-01 06:11:00,
2013-07-01 02:16:00,70.5,69.3,29.99,West,263,14.0,16.0,96,0.00,,,0.00,WeatherCatV1.14B232,2013-07-01 06:16:00,
2013-07-01 02:21:00,70.4,69.2,29.99,West,269,9.0,17.0,96,0.00,,,0.00,WeatherCatV1.14B232,2013-07-01 06:21:00,
2013-07-01 02:26:00,70.3,69.1,30.00,West,273,12.0,15.0,96,0.00,,,0.00,WeatherCatV1.14B232,2013-07-01 06:26:00,
2013-07-01 02:31:00,70.2,69.0,29.99,WSW,251,12.0,15.0,96,0.00,,,0.00,WeatherCatV1.14B232,2013-07-01 06:31:00,
2013-07-01 02:36:00,70.2,69.0,29.99,West,267,10.0,18.0,96,0.00,,,0.00,WeatherCatV1.14B232,2013-07-01 06:36:00,
2013-07-01 02:41:00,70.2,69.0,30.00,WSW,254,13.0,15.0,96,0.00,,,0.00,WeatherCatV1.14B232,2013-07-01 06:41:00,
2013-07-01 02:46:00,70.2,69.0,30.00,WSW,246,13.0,16.0,96,0.00,,,0.00,WeatherCatV1.14B232,2013-07-01 06:46:00,
2013-07-01 02:51:00,70.2,68.7,29.99,WSW,255,13.0,16.0,95,0.00,,,0.00,WeatherCatV1.14B232,2013-07-01 06:51:00,
2013-07-01 02:56:00,70.1,68.6,30.00,WSW,254,16.0,19.0,95,0.00,,,0.00,WeatherCatV1.14B232,2013-07-01 06:56:00,
2013-07-01 03:01:00,70.1,68.6,30.00,West,268,12.0,16.0,95,0.00,,,0.00,WeatherCatV1.14B232,2013-07-01 07:01:00,
2013-07-01 03:06:00,70.1,68.6,29.99,WSW,257,10.0,14.0,95,0.00,,,0.00,WeatherCatV1.14B232,2013-07-01 07:06:00,
2013-07-01 03:11:00,70.2,69.0,29.99,West,267,11.0,14.0,96,0.00,,,0.00,WeatherCatV1.14B232,2013-07-01 07:11:00,
2013-07-01 03:16:00,70.2,69.0,29.99,WSW,245,12.0,16.0,96,0.00,,,0.00,WeatherCatV1.14B232,2013-07-01 07:16:00,
2013-07-01 03:21:00,70.2,68.7,29.99,West,265,12.0,17.0,95,0.00,,,0.00,WeatherCatV1.14B232,2013-07-01 07:21:00,
2013-07-01 03:26:00,70.1,68.6,29.99,West,264,14.0,16.0,95,0.00,,,0.00,WeatherCatV1.14B232,2013-07-01 07:26:00,
2013-07-01 03:31:00,70.1,68.6,29.99,West,265,12.0,13.0,95,0.00,,,0.00,WeatherCatV1.14B232,2013-07-01 07:31:00,
2013-07-01 03:36:00,70.0,68.5,29.99,West,262,10.0,13.0,95,0.00,,,0.00,WeatherCatV1.14B232,2013-07-01 07:36:00,
2013-07-01 03:41:00,70.0,68.8,29.99,West,263,12.0,14.0,96,0.00,,,0.00,WeatherCatV1.14B232,2013-07-01 07:41:00,
2013-07-01 03:46:00,70.0,68.8,29.99,WSW,251,14.0,15.0,96,0.00,,,0.00,WeatherCatV1.14B232,2013-07-01 07:46:00,
2013-07-01 03:51:00,70.0,68.8,29.99,West,267,13.0,14.0,96,0.00,,,0.00,WeatherCatV1.14B232,2013-07-01 07:51:00,
2013-07-01 03:56:00,70.1,68.9,29.99,WSW,252,11.0,15.0,96,0.00,,,0.00,WeatherCatV1.14B232,2013-07-01 07:56:00,
2013-07-01 04:01:00,70.2,69.0,29.99,WSW,242,11.0,15.0,96,0.00,,,0.00,WeatherCatV1.14B232,2013-07-01 08:01:00,
2013-07-01 04:06:00,70.3,69.1,29.99,West,263,12.0,15.0,96,0.00,,,0.00,WeatherCatV1.14B232,2013-07-01 08:06:00,
2013-07-01 04:11:00,70.3,69.1,29.99,West,260,9.0,14.0,96,0.00,,,0.00,WeatherCatV1.14B232,2013-07-01 08:11:00,
2013-07-01 04:16:00,70.2,69.0,29.99,West,269,11.0,14.0,96,0.00,,,0.00,WeatherCatV1.14B232,2013-07-01 08:16:00,
2013-07-01 04:21:00,70.2,69.0,29.99,West,280,11.0,16.0,96,0.00,,,0.00,WeatherCatV1.14B232,2013-07-01 08:21:00,
2013-07-01 04:26:00,70.1,68.9,29.99,WSW,250,11.0,15.0,96,0.00,,,0.00,WeatherCatV1.14B232,2013-07-01 08:26:00,
2013-07-01 04:31:00,70.1,68.9,30.00,West,268,8.0,15.0,96,0.00,,,0.00,WeatherCatV1.14B232,2013-07-01 08:31:00,
2013-07-01 04:36:00,69.9,68.7,30.00,West,277,11.0,18.0,96,0.00,,,0.00,WeatherCatV1.14B232,2013-07-01 08:36:00,
2013-07-01 04:41:00,69.8,68.6,30.00,West,263,12.0,16.0,96,0.00,,,0.00,WeatherCatV1.14B232,2013-07-01 08:41:00,
2013-07-01 04:46:00,69.7,68.5,30.00,West,267,5.0,12.0,96,0.00,,,0.00,WeatherCatV1.14B232,2013-07-01 08:46:00,
2013-07-01 04:51:00,69.7,68.5,30.01,WNW,294,8.0,9.0,96,0.00,,,0.00,WeatherCatV1.14B232,2013-07-01 08:51:00,
2013-07-01 04:56:00,69.5,68.3,30.01,WSW,254,9.0,12.0,96,0.00,,,0.00,WeatherCatV1.14B232,2013-07-01 08:56:00,
2013-07-01 05:01:00,69.4,68.2,30.01,West,270,13.0,14.0,96,0.00,,,0.00,WeatherCatV1.14B232,2013-07-01 09:01:00,
2013-07-01 05:06:00,69.4,68.2,30.01,WNW,298,6.0,10.0,96,0.00,,,0.00,WeatherCatV1.14B232,2013-07-01 09:06:00,
2013-07-01 05:11:00,69.4,68.2,30.01,WNW,291,6.0,11.0,96,0.00,,,0.00,WeatherCatV1.14B232,2013-07-01 09:11:00,
2013-07-01 05:16:00,69.4,68.2,30.01,West,263,5.0,11.0,96,0.00,,,0.00,WeatherCatV1.14B232,2013-07-01 09:16:00,
2013-07-01 05:21:00,69.4,68.2,30.01,WNW,286,6.0,10.0,96,0.00,,,0.00,WeatherCatV1.14B232,2013-07-01 09:21:00,
2013-07-01 05:26:00,69.4,68.2,30.01,West,267,7.0,9.0,96,0.00,,,0.00,WeatherCatV1.14B232,2013-07-01 09:26:00,
2013-07-01 05:30:00,69.4,68.2,30.01,West,273,9.0,10.0,96,0.00,,,0.00,WeatherCatV1.14B232,2013-07-01 09:30:00,
2013-07-01 05:35:00,69.4,68.2,30.01,WSW,258,9.0,11.0,96,0.00,,,0.00,WeatherCatV1.14B232,2013-07-01 09:35:00,
2013-07-01 05:40:00,69.3,68.1,30.01,West,265,11.0,12.0,96,0.00,,,0.00,WeatherCatV1.14B232,2013-07-01 09:40:00,
2013-07-01 05:45:00,69.4,68.2,30.02,WNW,284,11.0,13.0,96,0.00,,,0.00,WeatherCatV1.14B232,2013-07-01 09:45:00,
2013-07-01 05:50:00,69.3,68.1,30.02,West,275,6.0,11.0,96,0.00,,,0.00,WeatherCatV1.14B232,2013-07-01 09:50:00,
2013-07-01 05:55:00,69.4,68.2,30.02,WSW,254,6.0,12.0,96,0.00,,,0.00,WeatherCatV1.14B232,2013-07-01 09:55:00,
2013-07-01 06:00:00,69.5,68.3,30.02,WSW,256,7.0,12.0,96,0.00,,,0.00,WeatherCatV1.14B232,2013-07-01 10:00:00,
2013-07-01 06:05:00,69.5,68.3,30.02,WSW,244,7.0,11.0,96,0.00,,,0.00,WeatherCatV1.14B232,2013-07-01 10:05:00,
2013-07-01 06:10:00,69.4,68.2,30.02,West,269,7.0,10.0,96,0.00,,,0.00,WeatherCatV1.14B232,2013-07-01 10:10:00,
2013-07-01 06:15:00,69.5,68.3,30.02,WNW,282,4.0,8.0,96,0.00,,,0.00,WeatherCatV1.14B232,2013-07-01 10:15:00,
2013-07-01 06:20:00,69.5,68.3,30.02,West,265,3.0,6.0,96,0.00,,,0.00,WeatherCatV1.14B232,2013-07-01 10:20:00,
2013-07-01 06:25:00,69.5,68.3,30.02,West,265,8.0,8.0,96,0.00,,,0.00,WeatherCatV1.14B232,2013-07-01 10:25:00,
2013-07-01 06:30:00,69.6,68.4,30.02,West,269,5.0,10.0,96,0.00,,,0.00,WeatherCatV1.14B232,2013-07-01 10:30:00,
2013-07-01 06:35:00,69.8,68.9,30.02,WSW,246,10.0,12.0,97,0.00,,,0.00,WeatherCatV1.14B232,2013-07-01 10:35:00,
2013-07-01 06:40:00,69.6,68.7,30.03,WSW,252,5.0,10.0,97,0.00,,,0.00,WeatherCatV1.14B232,2013-07-01 10:40:00,
2013-07-01 06:45:00,69.6,68.7,30.03,WNW,283,5.0,6.0,97,0.00,,,0.00,WeatherCatV1.14B232,2013-07-01 10:45:00,
2013-07-01 06:50:00,69.8,68.9,30.03,WSW,257,9.0,10.0,97,0.00,,,0.00,WeatherCatV1.14B232,2013-07-01 10:50:00,
2013-07-01 06:55:00,69.9,69.0,30.03,WNW,283,6.0,12.0,97,0.00,,,0.00,WeatherCatV1.14B232,2013-07-01 10:55:00,
2013-07-01 07:00:00,69.9,69.0,30.03,West,270,5.0,7.0,97,0.00,,,0.00,WeatherCatV1.14B232,2013-07-01 11:00:00,
2013-07-01 07:05:00,69.7,68.8,30.03,WNW,289,7.0,9.0,97,0.00,,,0.00,WeatherCatV1.14B232,2013-07-01 11:05:00,
2013-07-01 07:10:00,69.6,68.7,30.04,West,272,2.0,5.0,97,0.00,,,0.00,WeatherCatV1.14B232,2013-07-01 11:10:00,
2013-07-01 07:15:00,69.6,68.7,30.04,WNW,293,6.0,6.0,97,0.00,,,0.00,WeatherCatV1.14B232,2013-07-01 11:15:00,
2013-07-01 07:20:00,69.5,68.6,30.04,West,279,2.0,8.0,97,0.00,,,0.00,WeatherCatV1.14B232,2013-07-01 11:20:00,
2013-07-01 07:25:00,69.5,68.6,30.04,WSW,257,2.0,6.0,97,0.00,,,0.00,WeatherCatV1.14B232,2013-07-01 11:25:00,
2013-07-01 07:30:00,69.7,68.8,30.04,West,281,2.0,5.0,97,0.00,,,0.00,WeatherCatV1.14B232,2013-07-01 11:30:00,
2013-07-01 07:35:00,69.6,68.7,30.04,West,278,3.0,4.0,97,0.00,,,0.00,WeatherCatV1.14B232,2013-07-01 11:35:00,
2013-07-01 07:40:00,69.7,68.8,30.04,WNW,298,4.0,4.0,97,0.00,,,0.00,WeatherCatV1.14B232,2013-07-01 11:40:00,
2013-07-01 07:45:00,70.2,69.3,30.04,WNW,286,2.0,9.0,97,0.00,,,0.00,WeatherCatV1.14B232,2013-07-01 11:45:00,
2013-07-01 07:50:00,70.5,69.6,30.04,West,260,8.0,11.0,97,0.00,,,0.00,WeatherCatV1.14B232,2013-07-01 11:50:00,
2013-07-01 07:55:00,70.6,69.7,30.04,West,271,9.0,11.0,97,0.00,,,0.00,WeatherCatV1.14B232,2013-07-01 11:55:00,
2013-07-01 08:00:00,70.7,69.8,30.03,WSW,254,7.0,12.0,97,0.00,,,0.00,WeatherCatV1.14B232,2013-07-01 12:00:00,
2013-07-01 08:05:00,70.8,69.9,30.03,WSW,257,7.0,11.0,97,0.00,,,0.00,WeatherCatV1.14B232,2013-07-01 12:05:00,
2013-07-01 08:10:00,70.9,70.0,30.03,West,268,9.0,12.0,97,0.00,,,0.00,WeatherCatV1.14B232,2013-07-01 12:10:00,
2013-07-01 08:15:00,71.2,70.3,30.03,West,267,7.0,10.0,97,0.00,,,0.00,WeatherCatV1.14B232,2013-07-01 12:15:00,
2013-07-01 08:20:00,71.5,70.6,30.03,WSW,248,9.0,12.0,97,0.00,,,0.00,WeatherCatV1.14B232,2013-07-01 12:20:00,
2013-07-01 08:25:00,71.5,70.6,30.04,West,259,8.0,12.0,97,0.00,,,0.00,WeatherCatV1.14B232,2013-07-01 12:25:00,
2013-07-01 08:30:00,71.6,70.4,30.04,West,261,6.0,13.0,96,0.00,,,0.00,WeatherCatV1.14B232,2013-07-01 12:30:00,
2013-07-01 08:35:00,71.6,70.7,30.04,West,270,10.0,14.0,97,0.00,,,0.00,WeatherCatV1.14B232,2013-07-01 12:35:00,
2013-07-01 08:40:00,71.5,70.3,30.04,WNW,289,8.0,14.0,96,0.00,,,0.00,WeatherCatV1.14B232,2013-07-01 12:40:00,
2013-07-01 08:45:00,71.3,70.1,30.05,West,264,11.0,14.0,96,0.00,,,0.00,WeatherCatV1.14B232,2013-07-01 12:45:00,
2013-07-01 08:50:00,71.1,69.9,30.04,West,267,13.0,14.0,96,0.00,,,0.00,WeatherCatV1.14B232,2013-07-01 12:50:00,
2013-07-01 08:55:00,71.1,69.9,30.04,West,269,12.0,15.0,96,0.00,,,0.00,WeatherCatV1.14B232,2013-07-01 12:55:00,
2013-07-01 09:00:00,71.2,70.0,30.04,West,259,12.0,15.0,96,0.00,,,0.00,WeatherCatV1.14B232,2013-07-01 13:00:00,
2013-07-01 09:05:00,71.6,70.4,30.04,West,269,11.0,14.0,96,0.00,,,0.00,WeatherCatV1.14B232,2013-07-01 13:05:00,
2013-07-01 09:10:00,71.9,70.7,30.04,WSW,258,12.0,14.0,96,0.00,,,0.00,WeatherCatV1.14B232,2013-07-01 13:10:00,
2013-07-01 09:15:00,71.9,70.7,30.04,WSW,257,9.0,14.0,96,0.00,,,0.00,WeatherCatV1.14B232,2013-07-01 13:15:00,
2013-07-01 09:20:00,71.9,70.7,30.04,West,269,11.0,14.0,96,0.00,,,0.00,WeatherCatV1.14B232,2013-07-01 13:20:00,
2013-07-01 09:25:00,71.9,70.4,30.04,WNW,295,9.0,11.0,95,0.00,,,0.00,WeatherCatV1.14B232,2013-07-01 13:25:00,
2013-07-01 09:30:00,71.9,70.4,30.04,West,276,11.0,14.0,95,0.00,,,0.00,WeatherCatV1.14B232,2013-07-01 13:30:00,
2013-07-01 09:35:00,71.9,70.4,30.05,WSW,250,8.0,11.0,95,0.00,,,0.00,WeatherCatV1.14B232,2013-07-01 13:35:00,
2013-07-01 09:40:00,71.9,70.4,30.04,West,274,8.0,10.0,95,0.00,,,0.00,WeatherCatV1.14B232,2013-07-01 13:40:00,
2013-07-01 09:45:00,72.0,70.5,30.04,WSW,254,6.0,8.0,95,0.00,,,0.00,WeatherCatV1.14B232,2013-07-01 13:45:00,
2013-07-01 09:50:00,72.2,70.7,30.04,West,259,5.0,10.0,95,0.35,,,0.03,WeatherCatV1.14B232,2013-07-01 13:50:00,
2013-07-01 09:55:00,72.3,70.8,30.04,WSW,249,4.0,7.0,95,0.94,,,0.10,WeatherCatV1.14B232,2013-07-01 13:55:00,
2013-07-01 10:00:00,72.3,70.8,30.05,WSW,252,5.0,7.0,95,0.31,,,0.16,WeatherCatV1.14B232,2013-07-01 14:00:00,
2013-07-01 10:05:00,72.4,70.9,30.04,West,269,5.0,9.0,95,0.15,,,0.17,WeatherCatV1.14B232,2013-07-01 14:05:00,
2013-07-01 10:10:00,72.4,71.2,30.05,West,265,6.0,9.0,96,0.07,,,0.17,WeatherCatV1.14B232,2013-07-01 14:10:00,
2013-07-01 10:15:00,72.3,71.1,30.05,WSW,251,10.0,13.0,96,0.04,,,0.17,WeatherCatV1.14B232,2013-07-01 14:15:00,
2013-07-01 10:20:00,72.4,71.2,30.05,West,267,11.0,12.0,96,0.00,,,0.17,WeatherCatV1.14B232,2013-07-01 14:20:00,
2013-07-01 10:25:00,72.3,71.1,30.05,WSW,240,8.0,14.0,96,0.00,,,0.17,WeatherCatV1.14B232,2013-07-01 14:25:00,
2013-07-01 10:30:00,72.2,70.7,30.05,WSW,238,10.0,15.0,95,0.00,,,0.17,WeatherCatV1.14B232,2013-07-01 14:30:00,
2013-07-01 10:35:00,72.1,70.6,30.05,West,273,11.0,12.0,95,0.00,,,0.18,WeatherCatV1.14B232,2013-07-01 14:35:00,
2013-07-01 10:40:00,72.1,70.6,30.05,West,270,8.0,12.0,95,0.00,,,0.18,WeatherCatV1.14B232,2013-07-01 14:40:00,
2013-07-01 10:45:00,72.0,70.5,30.05,WSW,242,10.0,13.0,95,0.00,,,0.18,WeatherCatV1.14B232,2013-07-01 14:45:00,
2013-07-01 10:50:00,72.0,70.5,30.05,WSW,249,8.0,13.0,95,0.00,,,0.18,WeatherCatV1.14B232,2013-07-01 14:50:00,
2013-07-01 10:55:00,71.9,70.4,30.05,West,281,11.0,15.0,95,0.00,,,0.18,WeatherCatV1.14B232,2013-07-01 14:55:00,
2013-07-01 11:00:00,72.0,70.8,30.05,West,264,11.0,13.0,96,0.00,,,0.18,WeatherCatV1.14B232,2013-07-01 15:00:00,
2013-07-01 11:05:00,72.1,70.6,30.05,West,259,13.0,14.0,95,0.00,,,0.18,WeatherCatV1.14B232,2013-07-01 15:05:00,
2013-07-01 11:10:00,72.1,70.6,30.05,WSW,256,10.0,15.0,95,0.00,,,0.18,WeatherCatV1.14B232,2013-07-01 15:10:00,
2013-07-01 11:15:00,72.0,70.5,30.06,West,271,16.0,16.0,95,0.00,,,0.18,WeatherCatV1.14B232,2013-07-01 15:15:00,
2013-07-01 11:20:00,71.9,70.4,30.06,West,268,14.0,18.0,95,0.00,,,0.18,WeatherCatV1.14B232,2013-07-01 15:20:00,
2013-07-01 11:25:00,71.8,70.3,30.06,West,275,14.0,18.0,95,0.00,,,0.18,WeatherCatV1.14B232,2013-07-01 15:25:00,
2013-07-01 11:30:00,71.9,70.4,30.06,WSW,251,16.0,18.0,95,0.00,,,0.18,WeatherCatV1.14B232,2013-07-01 15:30:00,
2013-07-01 11:35:00,71.7,70.2,30.06,West,272,16.0,19.0,95,0.00,,,0.18,WeatherCatV1.14B232,2013-07-01 15:35:00,
2013-07-01 11:40:00,71.5,70.0,30.06,West,271,11.0,17.0,95,0.00,,,0.18,WeatherCatV1.14B232,2013-07-01 15:40:00,
2013-07-01 11:45:00,71.5,70.0,30.07,WSW,257,15.0,17.0,95,0.00,,,0.18,WeatherCatV1.14B232,2013-07-01 15:45:00,
2013-07-01 11:50:00,71.3,69.8,30.07,WSW,257,14.0,17.0,95,0.00,,,0.18,WeatherCatV1.14B232,2013-07-01 15:50:00,
2013-07-01 11:53:00,71.2,69.7,30.07,West,263,9.0,16.0,95,0.00,,,0.18,WeatherCatV1.14B232,2013-07-01 15:53:00,
2013-07-01 11:58:00,71.1,69.6,30.07,West,268,11.0,16.0,95,0.00,,,0.18,WeatherCatV1.14B232,2013-07-01 15:58:00,
2013-07-01 12:03:00,71.1,69.6,30.07,West,263,13.0,14.0,95,0.00,,,0.18,WeatherCatV1.14B232,2013-07-01 16:03:00,
2013-07-01 12:08:00,71.1,69.6,30.07,West,264,7.0,14.0,95,0.00,,,0.18,WeatherCatV1.14B232,2013-07-01 16:08:00,
2013-07-01 12:13:00,71.2,69.7,30.07,West,261,13.0,13.0,95,0.00,,,0.18,WeatherCatV1.14B232,2013-07-01 16:13:00,
2013-07-01 12:18:00,71.2,69.7,30.07,West,275,6.0,12.0,95,0.00,,,0.18,WeatherCatV1.14B232,2013-07-01 16:18:00,
2013-07-01 12:23:00,70.6,69.1,30.07,West,275,6.0,12.0,95,0.00,,,0.18,WeatherCatV1.14B232,2013-07-01 16:23:00,
2013-07-01 12:28:00,70.6,69.1,30.07,West,259,6.0,10.0,95,0.00,,,0.18,WeatherCatV1.14B232,2013-07-01 16:28:00,
2013-07-01 12:33:00,70.6,69.1,30.07,West,264,9.0,11.0,95,0.00,,,0.18,WeatherCatV1.14B232,2013-07-01 16:33:00,
2013-07-01 12:38:00,70.4,68.9,30.08,West,263,5.0,12.0,95,0.00,,,0.18,WeatherCatV1.14B232,2013-07-01 16:38:00,
2013-07-01 12:43:00,70.3,68.8,30.08,West,278,8.0,12.0,95,0.00,,,0.18,WeatherCatV1.14B232,2013-07-01 16:43:00,
2013-07-01 12:48:00,70.2,69.0,30.08,WNW,294,5.0,8.0,96,0.00,,,0.18,WeatherCatV1.14B232,2013-07-01 16:48:00,
2013-07-01 12:53:00,70.3,69.1,30.07,WNW,287,5.0,11.0,96,0.00,,,0.18,WeatherCatV1.14B232,2013-07-01 16:53:00,
2013-07-01 12:58:00,70.3,69.1,30.07,West,280,6.0,9.0,96,0.00,,,0.18,WeatherCatV1.14B232,2013-07-01 16:58:00,
2013-07-01 13:03:00,70.4,69.2,30.07,WNW,292,6.0,9.0,96,0.00,,,0.18,WeatherCatV1.14B232,2013-07-01 17:03:00,
2013-07-01 13:08:00,70.5,69.3,30.07,WNW,293,4.0,9.0,96,0.00,,,0.18,WeatherCatV1.14B232,2013-07-01 17:08:00,
2013-07-01 13:13:00,70.9,69.7,30.07,WNW,286,5.0,13.0,96,0.00,,,0.18,WeatherCatV1.14B232,2013-07-01 17:13:00,
2013-07-01 13:18:00,70.8,69.6,30.07,West,263,7.0,14.0,96,0.00,,,0.18,WeatherCatV1.14B232,2013-07-01 17:18:00,
2013-07-01 13:23:00,70.8,69.6,30.07,West,277,7.0,10.0,96,0.00,,,0.18,WeatherCatV1.14B232,2013-07-01 17:23:00,
2013-07-01 13:28:00,71.0,69.8,30.07,West,270,6.0,11.0,96,0.00,,,0.18,WeatherCatV1.14B232,2013-07-01 17:28:00,
2013-07-01 13:33:00,71.3,70.1,30.07,West,259,8.0,12.0,96,0.00,,,0.18,WeatherCatV1.14B232,2013-07-01 17:33:00,
2013-07-01 13:38:00,71.6,70.4,30.07,WSW,256,9.0,14.0,96,0.00,,,0.18,WeatherCatV1.14B232,2013-07-01 17:38:00,
2013-07-01 13:43:00,72.0,70.8,30.07,WSW,258,16.0,20.0,96,0.00,,,0.18,WeatherCatV1.14B232,2013-07-01 17:43:00,
2013-07-01 13:48:00,72.4,71.2,30.07,WSW,250,19.0,19.0,96,0.00,,,0.18,WeatherCatV1.14B232,2013-07-01 17:48:00,
2013-07-01 13:53:00,72.5,71.0,30.06,West,262,14.0,17.0,95,0.00,,,0.18,WeatherCatV1.14B232,2013-07-01 17:53:00,
2013-07-01 13:58:00,72.6,71.1,30.06,West,261,10.0,20.0,95,0.00,,,0.18,WeatherCatV1.14B232,2013-07-01 17:58:00,
2013-07-01 14:03:00,72.8,71.3,30.06,WSW,258,15.0,18.0,95,0.00,,,0.18,WeatherCatV1.14B232,2013-07-01 18:03:00,
2013-07-01 14:08:00,72.9,71.1,30.06,West,269,13.0,15.0,94,0.00,,,0.18,WeatherCatV1.14B232,2013-07-01 18:08:00,
2013-07-01 14:13:00,73.0,71.2,30.06,WSW,255,14.0,17.0,94,0.00,,,0.18,WeatherCatV1.14B232,2013-07-01 18:13:00,
2013-07-01 14:18:00,73.0,71.2,30.06,West,264,14.0,17.0,94,0.00,,,0.18,WeatherCatV1.14B232,2013-07-01 18:18:00,
2013-07-01 14:23:00,73.1,71.3,30.06,WSW,253,12.0,17.0,94,0.00,,,0.18,WeatherCatV1.14B232,2013-07-01 18:23:00,
2013-07-01 14:29:00,73.3,71.1,30.06,WSW,247,14.0,17.0,93,0.00,,,0.18,WeatherCatV1.14B232,2013-07-01 18:29:00,
2013-07-01 14:34:00,73.3,71.1,30.06,NW,309,14.0,18.0,93,0.00,,,0.18,WeatherCatV1.14B232,2013-07-01 18:34:00,
2013-07-01 14:39:00,73.4,71.2,30.06,WSW,257,17.0,19.0,93,0.00,,,0.18,WeatherCatV1.14B232,2013-07-01 18:39:00,
2013-07-01 14:44:00,73.3,71.1,30.07,West,273,18.0,21.0,93,0.00,,,0.18,WeatherCatV1.14B232,2013-07-01 18:44:00,
2013-07-01 14:49:00,73.0,70.8,30.07,West,261,19.0,22.0,93,0.00,,,0.18,WeatherCatV1.14B232,2013-07-01 18:49:00,
2013-07-01 14:54:00,72.8,70.7,30.07,West,262,19.0,22.0,93,0.00,,,0.18,WeatherCatV1.14B232,2013-07-01 18:54:00,
2013-07-01 14:59:00,72.6,70.5,30.07,West,261,18.0,22.0,93,0.00,,,0.18,WeatherCatV1.14B232,2013-07-01 18:59:00,
2013-07-01 15:04:00,72.5,70.4,30.07,WSW,250,16.0,20.0,93,0.00,,,0.18,WeatherCatV1.14B232,2013-07-01 19:04:00,
2013-07-01 15:09:00,72.4,70.3,30.07,West,263,13.0,17.0,93,0.00,,,0.18,WeatherCatV1.14B232,2013-07-01 19:09:00,
2013-07-01 15:14:00,72.4,70.6,30.07,WSW,252,16.0,20.0,94,0.00,,,0.18,WeatherCatV1.14B232,2013-07-01 19:14:00,
2013-07-01 15:19:00,72.3,70.5,30.07,West,260,13.0,15.0,94,0.00,,,0.18,WeatherCatV1.14B232,2013-07-01 19:19:00,
2013-07-01 15:24:00,72.2,70.4,30.07,WSW,252,15.0,18.0,94,0.00,,,0.18,WeatherCatV1.14B232,2013-07-01 19:24:00,
2013-07-01 15:29:00,72.1,70.3,30.07,West,261,16.0,20.0,94,0.00,,,0.18,WeatherCatV1.14B232,2013-07-01 19:29:00,
2013-07-01 15:34:00,71.9,70.1,30.07,West,259,13.0,18.0,94,0.00,,,0.18,WeatherCatV1.14B232,2013-07-01 19:34:00,
2013-07-01 15:39:00,71.8,70.0,30.07,West,265,10.0,17.0,94,0.00,,,0.18,WeatherCatV1.14B232,2013-07-01 19:39:00,
2013-07-01 15:44:00,71.6,69.8,30.07,West,262,13.0,17.0,94,0.00,,,0.18,WeatherCatV1.14B232,2013-07-01 19:44:00,
2013-07-01 15:49:00,71.5,69.7,30.07,WSW,257,10.0,12.0,94,0.00,,,0.18,WeatherCatV1.14B232,2013-07-01 19:49:00,
2013-07-01 15:54:00,71.8,70.0,30.07,WSW,258,11.0,15.0,94,0.00,,,0.18,WeatherCatV1.14B232,2013-07-01 19:54:00,
2013-07-01 15:59:00,72.3,70.5,30.07,West,263,10.0,14.0,94,0.00,,,0.18,WeatherCatV1.14B232,2013-07-01 19:59:00,
2013-07-01 16:04:00,72.5,70.7,30.07,West,271,11.0,15.0,94,0.00,,,0.18,WeatherCatV1.14B232,2013-07-01 20:04:00,
2013-07-01 16:09:00,72.6,70.5,30.07,West,281,13.0,13.0,93,0.00,,,0.18,WeatherCatV1.14B232,2013-07-01 20:09:00,
2013-07-01 16:14:00,72.4,70.3,30.07,West,269,10.0,13.0,93,0.00,,,0.18,WeatherCatV1.14B232,2013-07-01 20:14:00,
2013-07-01 16:19:00,72.2,70.1,30.07,West,259,11.0,11.0,93,0.00,,,0.18,WeatherCatV1.14B232,2013-07-01 20:19:00,
2013-07-01 16:24:00,72.0,69.9,30.07,SW,225,10.0,15.0,93,0.00,,,0.18,WeatherCatV1.14B232,2013-07-01 20:24:00,
2013-07-01 16:29:00,71.9,70.1,30.07,WNW,292,8.0,16.0,94,0.00,,,0.18,WeatherCatV1.14B232,2013-07-01 20:29:00,
2013-07-01 16:34:00,72.0,70.2,30.07,West,267,10.0,10.0,94,0.00,,,0.18,WeatherCatV1.14B232,2013-07-01 20:34:00,
2013-07-01 16:39:00,72.2,70.4,30.07,WSW,244,13.0,15.0,94,0.00,,,0.18,WeatherCatV1.14B232,2013-07-01 20:39:00,
2013-07-01 16:44:00,72.4,70.6,30.07,WSW,257,15.0,15.0,94,0.00,,,0.18,WeatherCatV1.14B232,2013-07-01 20:44:00,
2013-07-01 16:49:00,72.4,70.6,30.07,West,272,15.0,17.0,94,0.00,,,0.18,WeatherCatV1.14B232,2013-07-01 20:49:00,
2013-07-01 16:54:00,72.4,70.6,30.07,West,261,14.0,17.0,94,0.00,,,0.18,WeatherCatV1.14B232,2013-07-01 20:54:00,
2013-07-01 16:59:00,72.3,70.5,30.07,West,265,9.0,14.0,94,0.00,,,0.18,WeatherCatV1.14B232,2013-07-01 20:59:00,
2013-07-01 17:04:00,72.4,70.6,30.07,WSW,252,8.0,12.0,94,0.00,,,0.18,WeatherCatV1.14B232,2013-07-01 21:04:00,
2013-07-01 17:09:00,72.4,70.6,30.07,WNW,297,8.0,9.0,94,0.00,,,0.18,WeatherCatV1.14B232,2013-07-01 21:09:00,
2013-07-01 17:14:00,72.4,70.6,30.07,West,269,6.0,9.0,94,0.00,,,0.18,WeatherCatV1.14B232,2013-07-01 21:14:00,
2013-07-01 17:19:00,72.4,70.6,30.07,West,262,11.0,15.0,94,0.00,,,0.18,WeatherCatV1.14B232,2013-07-01 21:19:00,
2013-07-01 17:24:00,72.4,70.6,30.07,West,270,11.0,16.0,94,0.00,,,0.18,WeatherCatV1.14B232,2013-07-01 21:24:00,
2013-07-01 17:29:00,72.5,70.7,30.07,West,261,13.0,17.0,94,0.00,,,0.18,WeatherCatV1.14B232,2013-07-01 21:29:00,
2013-07-01 17:34:00,72.5,70.7,30.07,WSW,256,12.0,15.0,94,0.00,,,0.18,WeatherCatV1.14B232,2013-07-01 21:34:00,
2013-07-01 17:39:00,72.5,70.7,30.07,West,263,11.0,16.0,94,0.00,,,0.18,WeatherCatV1.14B232,2013-07-01 21:39:00,
2013-07-01 17:44:00,72.5,70.7,30.08,WSW,249,16.0,18.0,94,0.00,,,0.18,WeatherCatV1.14B232,2013-07-01 21:44:00,
2013-07-01 17:49:00,72.5,70.7,30.08,West,262,10.0,14.0,94,0.00,,,0.18,WeatherCatV1.14B232,2013-07-01 21:49:00,
2013-07-01 17:54:00,72.4,70.6,30.08,West,270,10.0,11.0,94,0.00,,,0.18,WeatherCatV1.14B232,2013-07-01 21:54:00,
2013-07-01 17:59:00,72.2,70.4,30.08,WNW,288,6.0,13.0,94,0.00,,,0.18,WeatherCatV1.14B232,2013-07-01 21:59:00,
2013-07-01 18:04:00,71.8,70.0,30.08,West,275,9.0,11.0,94,0.00,,,0.18,WeatherCatV1.14B232,2013-07-01 22:04:00,
2013-07-01 18:09:00,71.7,69.9,30.08,West,266,7.0,10.0,94,0.00,,,0.18,WeatherCatV1.14B232,2013-07-01 22:09:00,
2013-07-01 18:14:00,71.9,70.1,30.08,West,261,7.0,9.0,94,0.00,,,0.18,WeatherCatV1.14B232,2013-07-01 22:14:00,
2013-07-01 18:19:00,72.0,70.2,30.08,WNW,286,10.0,10.0,94,0.00,,,0.18,WeatherCatV1.14B232,2013-07-01 22:19:00,
2013-07-01 18:24:00,71.8,70.0,30.08,West,277,7.0,11.0,94,0.00,,,0.18,WeatherCatV1.14B232,2013-07-01 22:24:00,
2013-07-01 18:29:00,71.5,69.7,30.08,West,265,5.0,12.0,94,0.00,,,0.18,WeatherCatV1.14B232,2013-07-01 22:29:00,
2013-07-01 18:34:00,71.3,69.5,30.08,WNW,294,5.0,11.0,94,0.00,,,0.18,WeatherCatV1.14B232,2013-07-01 22:34:00,
2013-07-01 18:39:00,71.2,69.4,30.08,West,261,5.0,12.0,94,0.00,,,0.18,WeatherCatV1.14B232,2013-07-01 22:39:00,
2013-07-01 18:44:00,71.1,69.3,30.08,NW,310,7.0,11.0,94,0.00,,,0.18,WeatherCatV1.14B232,2013-07-01 22:44:00,
2013-07-01 18:49:00,71.0,69.2,30.08,WNW,296,5.0,10.0,94,0.00,,,0.18,WeatherCatV1.14B232,2013-07-01 22:49:00,
2013-07-01 18:54:00,70.9,69.4,30.08,West,262,6.0,9.0,95,0.00,,,0.18,WeatherCatV1.14B232,2013-07-01 22:54:00,
2013-07-01 18:59:00,70.8,69.3,30.08,WSW,238,6.0,14.0,95,0.00,,,0.18,WeatherCatV1.14B232,2013-07-01 22:59:00,
2013-07-01 19:04:00,70.8,69.3,30.08,West,266,11.0,17.0,95,0.00,,,0.18,WeatherCatV1.14B232,2013-07-01 23:04:00,
2013-07-01 19:09:00,70.8,69.3,30.08,West,259,11.0,17.0,95,0.00,,,0.18,WeatherCatV1.14B232,2013-07-01 23:09:00,
2013-07-01 19:14:00,70.8,69.3,30.09,WNW,288,9.0,18.0,95,0.00,,,0.18,WeatherCatV1.14B232,2013-07-01 23:14:00,
2013-07-01 19:19:00,70.7,69.2,30.08,West,267,8.0,16.0,95,0.00,,,0.18,WeatherCatV1.14B232,2013-07-01 23:19:00,
2013-07-01 19:24:00,70.7,69.2,30.09,West,271,14.0,14.0,95,0.00,,,0.18,WeatherCatV1.14B232,2013-07-01 23:24:00,
2013-07-01 19:29:00,70.8,69.3,30.09,West,276,12.0,14.0,95,0.00,,,0.18,WeatherCatV1.14B232,2013-07-01 23:29:00,
2013-07-01 19:34:00,70.8,69.3,30.09,West,261,16.0,18.0,95,0.00,,,0.18,WeatherCatV1.14B232,2013-07-01 23:34:00,
2013-07-01 19:39:00,70.7,69.2,30.09,West,281,10.0,14.0,95,0.00,,,0.18,WeatherCatV1.14B232,2013-07-01 23:39:00,
2013-07-01 19:44:00,70.8,69.3,30.09,West,261,12.0,16.0,95,0.00,,,0.18,WeatherCatV1.14B232,2013-07-01 23:44:00,
2013-07-01 19:49:00,70.9,69.4,30.09,WSW,252,14.0,15.0,95,0.00,,,0.18,WeatherCatV1.14B232,2013-07-01 23:49:00,
2013-07-01 19:54:00,70.9,69.4,30.09,West,263,13.0,17.0,95,0.00,,,0.18,WeatherCatV1.14B232,2013-07-01 23:54:00,
2013-07-01 19:59:00,71.0,69.5,30.09,WSW,248,10.0,16.0,95,0.00,,,0.18,WeatherCatV1.14B232,2013-07-01 23:59:00,
2013-07-01 20:04:00,71.0,69.5,30.10,West,267,14.0,17.0,95,0.00,,,0.18,WeatherCatV1.14B232,2013-07-02 00:04:00,
2013-07-01 20:09:00,71.0,69.5,30.10,West,267,7.0,14.0,95,0.00,,,0.18,WeatherCatV1.14B232,2013-07-02 00:09:00,
2013-07-01 20:14:00,70.8,69.3,30.10,West,272,8.0,13.0,95,0.00,,,0.18,WeatherCatV1.14B232,2013-07-02 00:14:00,
2013-07-01 20:19:00,70.7,69.2,30.10,West,267,7.0,11.0,95,0.00,,,0.18,WeatherCatV1.14B232,2013-07-02 00:19:00,
2013-07-01 20:24:00,70.7,69.2,30.11,West,263,10.0,13.0,95,0.00,,,0.18,WeatherCatV1.14B232,2013-07-02 00:24:00,
2013-07-01 20:29:00,70.7,69.2,30.11,WNW,283,6.0,13.0,95,0.00,,,0.18,WeatherCatV1.14B232,2013-07-02 00:29:00,
2013-07-01 20:34:00,70.6,69.1,30.11,West,262,11.0,12.0,95,0.00,,,0.18,WeatherCatV1.14B232,2013-07-02 00:34:00,
2013-07-01 20:39:00,70.7,69.2,30.12,West,263,12.0,13.0,95,0.00,,,0.18,WeatherCatV1.14B232,2013-07-02 00:39:00,
2013-07-01 20:44:00,70.6,69.1,30.12,West,260,13.0,15.0,95,0.00,,,0.18,WeatherCatV1.14B232,2013-07-02 00:44:00,
2013-07-01 20:49:00,70.6,69.1,30.12,West,264,11.0,13.0,95,0.00,,,0.18,WeatherCatV1.14B232,2013-07-02 00:49:00,
2013-07-01 20:54:00,70.5,69.0,30.12,WSW,253,12.0,15.0,95,0.00,,,0.18,WeatherCatV1.14B232,2013-07-02 00:54:00,
2013-07-01 20:59:00,70.5,69.0,30.13,West,264,12.0,14.0,95,0.00,,,0.18,WeatherCatV1.14B232,2013-07-02 00:59:00,
2013-07-01 21:04:00,70.6,69.1,30.13,West,259,14.0,15.0,95,0.00,,,0.18,WeatherCatV1.14B232,2013-07-02 01:04:00,
2013-07-01 21:09:00,70.6,69.1,30.13,West,276,8.0,15.0,95,0.00,,,0.18,WeatherCatV1.14B232,2013-07-02 01:09:00,
2013-07-01 21:14:00,70.5,69.0,30.13,WNW,284,8.0,14.0,95,0.00,,,0.18,WeatherCatV1.14B232,2013-07-02 01:14:00,
2013-07-01 21:19:00,70.6,69.1,30.13,West,262,10.0,13.0,95,0.00,,,0.18,WeatherCatV1.14B232,2013-07-02 01:19:00,
2013-07-01 21:24:00,70.6,69.1,30.14,West,277,5.0,11.0,95,0.00,,,0.18,WeatherCatV1.14B232,2013-07-02 01:24:00,
2013-07-01 21:29:00,70.6,69.1,30.14,West,270,6.0,12.0,95,0.00,,,0.18,WeatherCatV1.14B232,2013-07-02 01:29:00,
2013-07-01 21:34:00,70.6,69.1,30.14,West,259,5.0,11.0,95,0.00,,,0.18,WeatherCatV1.14B232,2013-07-02 01:34:00,
2013-07-01 21:39:00,70.7,69.2,30.14,WSW,252,9.0,9.0,95,0.00,,,0.18,WeatherCatV1.14B232,2013-07-02 01:39:00,
2013-07-01 21:44:00,70.7,69.2,30.14,West,260,9.0,11.0,95,0.00,,,0.18,WeatherCatV1.14B232,2013-07-02 01:44:00,
2013-07-01 21:49:00,70.6,69.1,30.14,WNW,286,5.0,10.0,95,0.00,,,0.18,WeatherCatV1.14B232,2013-07-02 01:49:00,
2013-07-01 21:54:00,70.6,69.1,30.14,West,270,5.0,12.0,95,0.00,,,0.18,WeatherCatV1.14B232,2013-07-02 01:54:00,
2013-07-01 21:59:00,70.5,69.0,30.14,West,260,9.0,10.0,95,0.00,,,0.18,WeatherCatV1.14B232,2013-07-02 01:59:00,
2013-07-01 22:04:00,70.5,69.0,30.14,West,265,5.0,11.0,95,0.00,,,0.18,WeatherCatV1.14B232,2013-07-02 02:04:00,
2013-07-01 22:09:00,70.4,68.9,30.14,West,276,8.0,8.0,95,0.00,,,0.18,WeatherCatV1.14B232,2013-07-02 02:09:00,
2013-07-01 22:14:00,70.5,69.0,30.13,West,273,7.0,9.0,95,0.00,,,0.18,WeatherCatV1.14B232,2013-07-02 02:14:00,
2013-07-01 22:19:00,70.5,69.0,30.13,West,267,10.0,11.0,95,0.00,,,0.18,WeatherCatV1.14B232,2013-07-02 02:19:00,
2013-07-01 22:24:00,70.5,69.0,30.14,West,267,11.0,11.0,95,0.00,,,0.18,WeatherCatV1.14B232,2013-07-02 02:24:00,
2013-07-01 22:29:00,70.5,69.0,30.14,West,268,10.0,12.0,95,0.00,,,0.18,WeatherCatV1.14B232,2013-07-02 02:29:00,
2013-07-01 22:34:00,70.4,68.9,30.14,West,272,8.0,14.0,95,0.00,,,0.18,WeatherCatV1.14B232,2013-07-02 02:34:00,
2013-07-01 22:39:00,70.6,69.1,30.14,West,260,8.0,13.0,95,0.00,,,0.18,WeatherCatV1.14B232,2013-07-02 02:39:00,
2013-07-01 22:44:00,70.7,69.2,30.14,West,273,10.0,13.0,95,0.00,,,0.18,WeatherCatV1.14B232,2013-07-02 02:44:00,
2013-07-01 22:49:00,70.8,69.3,30.14,West,261,12.0,15.0,95,0.00,,,0.18,WeatherCatV1.14B232,2013-07-02 02:49:00,
2013-07-01 22:54:00,70.9,69.4,30.14,West,264,13.0,14.0,95,0.00,,,0.18,WeatherCatV1.14B232,2013-07-02 02:54:00,
2013-07-01 22:59:00,71.1,69.6,30.13,West,262,12.0,13.0,95,0.00,,,0.18,WeatherCatV1.14B232,2013-07-02 02:59:00,
2013-07-01 23:04:00,71.2,69.7,30.14,West,266,9.0,13.0,95,0.00,,,0.18,WeatherCatV1.14B232,2013-07-02 03:04:00,
2013-07-01 23:09:00,71.3,69.8,30.13,WSW,256,10.0,15.0,95,0.00,,,0.18,WeatherCatV1.14B232,2013-07-02 03:09:00,
2013-07-01 23:14:00,71.5,70.0,30.13,West,261,13.0,13.0,95,0.00,,,0.18,WeatherCatV1.14B232,2013-07-02 03:14:00,
2013-07-01 23:19:00,71.5,70.0,30.13,WSW,252,13.0,15.0,95,0.00,,,0.18,WeatherCatV1.14B232,2013-07-02 03:19:00,
2013-07-01 23:24:00,71.5,70.0,30.13,West,270,15.0,16.0,95,0.00,,,0.18,WeatherCatV1.14B232,2013-07-02 03:24:00,
2013-07-01 23:29:00,71.5,69.7,30.12,West,259,14.0,14.0,94,0.00,,,0.18,WeatherCatV1.14B232,2013-07-02 03:29:00,
2013-07-01 23:34:00,71.5,70.0,30.13,West,267,12.0,16.0,95,0.00,,,0.18,WeatherCatV1.14B232,2013-07-02 03:34:00,
2013-07-01 23:39:00,71.5,70.0,30.13,West,265,13.0,13.0,95,0.00,,,0.18,WeatherCatV1.14B232,2013-07-02 03:39:00,
2013-07-01 23:44:00,71.5,69.7,30.13,WSW,257,14.0,18.0,94,0.00,,,0.18,WeatherCatV1.14B232,2013-07-02 03:44:00,
2013-07-01 23:49:00,71.5,69.7,30.13,WSW,257,16.0,16.0,94,0.00,,,0.18,WeatherCatV1.14B232,2013-07-02 03:49:00,
2013-07-01 23:54:00,71.5,69.7,30.13,West,264,17.0,17.0,94,0.00,,,0.18,WeatherCatV1.14B232,2013-07-02 03:54:00,
2013-07-01 23:59:00,71.4,69.6,30.13,West,267,11.0,15.0,94,0.00,,,0.18,WeatherCatV1.14B232,2013-07-02 03:59:00,